sensor_id;sensor_type;location;lat;lon;timestamp;P1;durP1;ratioP1;P2;durP2;ratioP2
70667;SDS011;58242;51.250;-1.118;2023-12-07T00:01:09;2.53;;;2.20;;
70667;SDS011;58242;51.250;-1.118;2023-12-07T00:03:34;3.22;;;2.33;;
70667;SDS011;58242;51.250;-1.118;2023-12-07T00:05:59;4.53;;;2.65;;
70667;SDS011;58242;51.250;-1.118;2023-12-07T00:08:25;2.50;;;2.30;;
70667;SDS011;58242;51.250;-1.118;2023-12-07T00:10:50;2.40;;;2.30;;
70667;SDS011;58242;51.250;-1.118;2023-12-07T00:13:15;3.20;;;2.50;;
70667;SDS011;58242;51.250;-1.118;2023-12-07T00:15:42;3.70;;;2.40;;
70667;SDS011;58242;51.250;-1.118;2023-12-07T00:18:07;2.15;;;2.05;;
70667;SDS011;58242;51.250;-1.118;2023-12-07T00:20:33;2.10;;;2.00;;
70667;SDS011;58242;51.250;-1.118;2023-12-07T00:22:58;2.75;;;2.55;;
70667;SDS011;58242;51.250;-1.118;2023-12-07T00:25:23;2.60;;;2.40;;
70667;SDS011;58242;51.250;-1.118;2023-12-07T00:27:49;2.47;;;2.35;;
70667;SDS011;58242;51.250;-1.118;2023-12-07T00:30:14;2.63;;;2.22;;
70667;SDS011;58242;51.250;-1.118;2023-12-07T00:32:40;6.32;;;3.08;;
70667;SDS011;58242;51.250;-1.118;2023-12-07T00:35:08;2.63;;;2.47;;
70667;SDS011;58242;51.250;-1.118;2023-12-07T00:37:36;3.33;;;2.70;;
70667;SDS011;58242;51.250;-1.118;2023-12-07T00:40:02;5.03;;;2.65;;
70667;SDS011;58242;51.250;-1.118;2023-12-07T00:42:28;2.78;;;2.50;;
70667;SDS011;58242;51.250;-1.118;2023-12-07T00:44:54;2.80;;;2.60;;
70667;SDS011;58242;51.250;-1.118;2023-12-07T00:47:20;2.60;;;2.40;;
70667;SDS011;58242;51.250;-1.118;2023-12-07T00:49:45;3.13;;;2.70;;
70667;SDS011;58242;51.250;-1.118;2023-12-07T00:52:11;2.45;;;2.25;;
70667;SDS011;58242;51.250;-1.118;2023-12-07T00:54:37;3.08;;;2.60;;
70667;SDS011;58242;51.250;-1.118;2023-12-07T00:57:03;2.53;;;2.40;;
70667;SDS011;58242;51.250;-1.118;2023-12-07T00:59:28;2.55;;;2.35;;
70667;SDS011;58242;51.250;-1.118;2023-12-07T01:01:59;2.80;;;2.58;;
70667;SDS011;58242;51.250;-1.118;2023-12-07T01:04:28;2.63;;;2.53;;
70667;SDS011;58242;51.250;-1.118;2023-12-07T01:06:54;3.00;;;2.45;;
70667;SDS011;58242;51.250;-1.118;2023-12-07T01:09:19;2.83;;;2.63;;
70667;SDS011;58242;51.250;-1.118;2023-12-07T01:11:45;4.30;;;2.50;;
70667;SDS011;58242;51.250;-1.118;2023-12-07T01:14:10;4.68;;;2.95;;
70667;SDS011;58242;51.250;-1.118;2023-12-07T01:16:36;2.67;;;2.47;;
70667;SDS011;58242;51.250;-1.118;2023-12-07T01:19:02;2.85;;;2.65;;
70667;SDS011;58242;51.250;-1.118;2023-12-07T01:21:27;3.63;;;2.60;;
70667;SDS011;58242;51.250;-1.118;2023-12-07T01:23:52;3.85;;;3.05;;
70667;SDS011;58242;51.250;-1.118;2023-12-07T01:26:18;3.70;;;3.20;;
70667;SDS011;58242;51.250;-1.118;2023-12-07T01:28:43;3.03;;;2.65;;
70667;SDS011;58242;51.250;-1.118;2023-12-07T01:31:08;4.00;;;3.00;;
70667;SDS011;58242;51.250;-1.118;2023-12-07T01:33:34;3.05;;;2.75;;
70667;SDS011;58242;51.250;-1.118;2023-12-07T01:35:59;4.63;;;3.10;;
70667;SDS011;58242;51.250;-1.118;2023-12-07T01:38:24;5.57;;;3.10;;
70667;SDS011;58242;51.250;-1.118;2023-12-07T01:40:50;4.13;;;3.28;;
70667;SDS011;58242;51.250;-1.118;2023-12-07T01:43:15;3.20;;;2.90;;
70667;SDS011;58242;51.250;-1.118;2023-12-07T01:45:40;3.30;;;2.92;;
70667;SDS011;58242;51.250;-1.118;2023-12-07T01:48:06;3.05;;;2.72;;
70667;SDS011;58242;51.250;-1.118;2023-12-07T01:50:31;3.70;;;3.15;;
70667;SDS011;58242;51.250;-1.118;2023-12-07T01:53:01;3.50;;;3.00;;
70667;SDS011;58242;51.250;-1.118;2023-12-07T01:55:28;3.40;;;3.10;;
70667;SDS011;58242;51.250;-1.118;2023-12-07T01:57:55;4.82;;;3.35;;
70667;SDS011;58242;51.250;-1.118;2023-12-07T02:00:20;5.10;;;3.40;;
70667;SDS011;58242;51.250;-1.118;2023-12-07T02:02:46;2.75;;;2.60;;
70667;SDS011;58242;51.250;-1.118;2023-12-07T02:05:13;3.28;;;2.97;;
70667;SDS011;58242;51.250;-1.118;2023-12-07T02:07:40;3.65;;;3.35;;
70667;SDS011;58242;51.250;-1.118;2023-12-07T02:10:06;3.65;;;3.30;;
70667;SDS011;58242;51.250;-1.118;2023-12-07T02:12:32;3.55;;;3.25;;
70667;SDS011;58242;51.250;-1.118;2023-12-07T02:14:57;3.40;;;3.15;;
70667;SDS011;58242;51.250;-1.118;2023-12-07T02:17:26;3.72;;;3.42;;
70667;SDS011;58242;51.250;-1.118;2023-12-07T02:20:17;3.85;;;3.45;;
70667;SDS011;58242;51.250;-1.118;2023-12-07T02:22:54;3.63;;;3.10;;
70667;SDS011;58242;51.250;-1.118;2023-12-07T02:25:24;4.95;;;3.60;;
70667;SDS011;58242;51.250;-1.118;2023-12-07T02:27:54;4.43;;;3.55;;
70667;SDS011;58242;51.250;-1.118;2023-12-07T02:30:19;4.28;;;3.22;;
70667;SDS011;58242;51.250;-1.118;2023-12-07T02:32:45;4.93;;;3.42;;
70667;SDS011;58242;51.250;-1.118;2023-12-07T02:35:11;4.45;;;3.50;;
70667;SDS011;58242;51.250;-1.118;2023-12-07T02:37:44;5.50;;;3.67;;
70667;SDS011;58242;51.250;-1.118;2023-12-07T02:40:10;3.58;;;3.28;;
70667;SDS011;58242;51.250;-1.118;2023-12-07T02:42:40;6.40;;;3.97;;
70667;SDS011;58242;51.250;-1.118;2023-12-07T02:45:07;4.63;;;4.22;;
70667;SDS011;58242;51.250;-1.118;2023-12-07T02:47:33;3.75;;;3.45;;
70667;SDS011;58242;51.250;-1.118;2023-12-07T02:49:59;4.75;;;3.80;;
70667;SDS011;58242;51.250;-1.118;2023-12-07T02:52:24;3.65;;;3.35;;
70667;SDS011;58242;51.250;-1.118;2023-12-07T02:54:50;3.92;;;3.53;;
70667;SDS011;58242;51.250;-1.118;2023-12-07T02:57:15;4.00;;;3.60;;
70667;SDS011;58242;51.250;-1.118;2023-12-07T02:59:41;3.60;;;3.30;;
70667;SDS011;58242;51.250;-1.118;2023-12-07T03:02:06;6.40;;;4.40;;
70667;SDS011;58242;51.250;-1.118;2023-12-07T03:04:32;5.60;;;4.32;;
70667;SDS011;58242;51.250;-1.118;2023-12-07T03:06:57;7.10;;;5.20;;
70667;SDS011;58242;51.250;-1.118;2023-12-07T03:09:23;4.95;;;4.45;;
70667;SDS011;58242;51.250;-1.118;2023-12-07T03:11:49;5.38;;;4.88;;
70667;SDS011;58242;51.250;-1.118;2023-12-07T03:14:14;7.90;;;5.00;;
70667;SDS011;58242;51.250;-1.118;2023-12-07T03:16:40;6.32;;;4.50;;
70667;SDS011;58242;51.250;-1.118;2023-12-07T03:19:05;5.88;;;5.28;;
70667;SDS011;58242;51.250;-1.118;2023-12-07T03:21:30;5.40;;;4.22;;
70667;SDS011;58242;51.250;-1.118;2023-12-07T03:23:56;5.07;;;4.68;;
70667;SDS011;58242;51.250;-1.118;2023-12-07T03:26:21;7.90;;;5.32;;
70667;SDS011;58242;51.250;-1.118;2023-12-07T03:28:46;4.80;;;4.35;;
70667;SDS011;58242;51.250;-1.118;2023-12-07T03:31:12;5.30;;;4.57;;
70667;SDS011;58242;51.250;-1.118;2023-12-07T03:33:37;4.07;;;3.67;;
70667;SDS011;58242;51.250;-1.118;2023-12-07T03:36:03;6.25;;;4.32;;
70667;SDS011;58242;51.250;-1.118;2023-12-07T03:38:30;5.25;;;4.20;;
70667;SDS011;58242;51.250;-1.118;2023-12-07T03:40:55;8.38;;;4.65;;
70667;SDS011;58242;51.250;-1.118;2023-12-07T03:43:21;7.03;;;4.97;;
70667;SDS011;58242;51.250;-1.118;2023-12-07T03:45:46;7.20;;;5.40;;
70667;SDS011;58242;51.250;-1.118;2023-12-07T03:48:12;8.30;;;5.47;;
70667;SDS011;58242;51.250;-1.118;2023-12-07T03:50:37;6.22;;;4.88;;
70667;SDS011;58242;51.250;-1.118;2023-12-07T03:53:03;5.00;;;4.47;;
70667;SDS011;58242;51.250;-1.118;2023-12-07T03:55:28;8.55;;;5.32;;
70667;SDS011;58242;51.250;-1.118;2023-12-07T03:57:53;9.68;;;5.50;;
70667;SDS011;58242;51.250;-1.118;2023-12-07T04:00:19;8.43;;;4.97;;
70667;SDS011;58242;51.250;-1.118;2023-12-07T04:02:44;4.53;;;4.07;;
70667;SDS011;58242;51.250;-1.118;2023-12-07T04:05:09;4.93;;;4.43;;
70667;SDS011;58242;51.250;-1.118;2023-12-07T04:07:35;6.20;;;4.53;;
70667;SDS011;58242;51.250;-1.118;2023-12-07T04:10:00;6.03;;;5.43;;
70667;SDS011;58242;51.250;-1.118;2023-12-07T04:12:25;7.60;;;4.72;;
70667;SDS011;58242;51.250;-1.118;2023-12-07T04:14:51;8.40;;;4.90;;
70667;SDS011;58242;51.250;-1.118;2023-12-07T04:17:17;5.85;;;4.60;;
70667;SDS011;58242;51.250;-1.118;2023-12-07T04:19:42;6.70;;;4.75;;
70667;SDS011;58242;51.250;-1.118;2023-12-07T04:22:07;4.32;;;4.03;;
70667;SDS011;58242;51.250;-1.118;2023-12-07T04:24:33;5.38;;;4.55;;
70667;SDS011;58242;51.250;-1.118;2023-12-07T04:26:58;4.72;;;4.22;;
70667;SDS011;58242;51.250;-1.118;2023-12-07T04:29:23;4.85;;;3.90;;
70667;SDS011;58242;51.250;-1.118;2023-12-07T04:31:49;4.38;;;3.97;;
70667;SDS011;58242;51.250;-1.118;2023-12-07T04:34:14;4.00;;;3.60;;
70667;SDS011;58242;51.250;-1.118;2023-12-07T04:36:39;5.72;;;4.85;;
70667;SDS011;58242;51.250;-1.118;2023-12-07T04:39:05;3.83;;;3.50;;
70667;SDS011;58242;51.250;-1.118;2023-12-07T04:41:30;5.05;;;4.28;;
70667;SDS011;58242;51.250;-1.118;2023-12-07T04:43:55;3.97;;;3.60;;
70667;SDS011;58242;51.250;-1.118;2023-12-07T04:46:21;4.60;;;4.00;;
70667;SDS011;58242;51.250;-1.118;2023-12-07T04:48:46;4.72;;;3.50;;
70667;SDS011;58242;51.250;-1.118;2023-12-07T04:51:11;6.22;;;3.92;;
70667;SDS011;58242;51.250;-1.118;2023-12-07T04:53:37;5.10;;;4.43;;
70667;SDS011;58242;51.250;-1.118;2023-12-07T04:56:02;7.55;;;4.40;;
70667;SDS011;58242;51.250;-1.118;2023-12-07T04:58:28;3.85;;;3.45;;
70667;SDS011;58242;51.250;-1.118;2023-12-07T05:00:53;3.60;;;3.25;;
70667;SDS011;58242;51.250;-1.118;2023-12-07T05:03:18;6.88;;;4.63;;
70667;SDS011;58242;51.250;-1.118;2023-12-07T05:05:44;8.07;;;3.80;;
70667;SDS011;58242;51.250;-1.118;2023-12-07T05:08:09;3.38;;;3.08;;
70667;SDS011;58242;51.250;-1.118;2023-12-07T05:10:34;3.63;;;3.22;;
70667;SDS011;58242;51.250;-1.118;2023-12-07T05:13:00;3.50;;;3.22;;
70667;SDS011;58242;51.250;-1.118;2023-12-07T05:15:25;4.10;;;3.50;;
70667;SDS011;58242;51.250;-1.118;2023-12-07T05:17:51;6.30;;;3.95;;
70667;SDS011;58242;51.250;-1.118;2023-12-07T05:20:16;4.00;;;3.03;;
70667;SDS011;58242;51.250;-1.118;2023-12-07T05:22:43;3.97;;;3.55;;
70667;SDS011;58242;51.250;-1.118;2023-12-07T05:25:09;4.25;;;3.67;;
70667;SDS011;58242;51.250;-1.118;2023-12-07T05:27:34;5.38;;;3.70;;
70667;SDS011;58242;51.250;-1.118;2023-12-07T05:29:59;3.40;;;3.10;;
70667;SDS011;58242;51.250;-1.118;2023-12-07T05:32:25;3.38;;;3.08;;
70667;SDS011;58242;51.250;-1.118;2023-12-07T05:34:50;2.95;;;2.75;;
70667;SDS011;58242;51.250;-1.118;2023-12-07T05:37:15;3.17;;;2.70;;
70667;SDS011;58242;51.250;-1.118;2023-12-07T05:39:41;5.40;;;3.13;;
70667;SDS011;58242;51.250;-1.118;2023-12-07T05:42:06;3.75;;;3.45;;
70667;SDS011;58242;51.250;-1.118;2023-12-07T05:44:31;7.50;;;4.10;;
70667;SDS011;58242;51.250;-1.118;2023-12-07T05:46:57;12.40;;;4.50;;
70667;SDS011;58242;51.250;-1.118;2023-12-07T05:49:22;6.43;;;4.47;;
70667;SDS011;58242;51.250;-1.118;2023-12-07T05:51:48;4.70;;;4.15;;
70667;SDS011;58242;51.250;-1.118;2023-12-07T05:54:14;6.68;;;3.95;;
70667;SDS011;58242;51.250;-1.118;2023-12-07T05:56:39;7.72;;;4.20;;
70667;SDS011;58242;51.250;-1.118;2023-12-07T05:59:05;4.97;;;3.97;;
70667;SDS011;58242;51.250;-1.118;2023-12-07T06:01:31;4.75;;;3.67;;
70667;SDS011;58242;51.250;-1.118;2023-12-07T06:03:57;6.68;;;3.60;;
70667;SDS011;58242;51.250;-1.118;2023-12-07T06:06:23;6.20;;;4.68;;
70667;SDS011;58242;51.250;-1.118;2023-12-07T06:08:48;4.50;;;3.58;;
70667;SDS011;58242;51.250;-1.118;2023-12-07T06:11:13;4.07;;;3.67;;
70667;SDS011;58242;51.250;-1.118;2023-12-07T06:13:39;3.63;;;3.33;;
70667;SDS011;58242;51.250;-1.118;2023-12-07T06:16:04;5.65;;;3.60;;
70667;SDS011;58242;51.250;-1.118;2023-12-07T06:18:30;5.28;;;3.65;;
70667;SDS011;58242;51.250;-1.118;2023-12-07T06:20:55;4.22;;;3.72;;
70667;SDS011;58242;51.250;-1.118;2023-12-07T06:23:21;4.93;;;3.85;;
70667;SDS011;58242;51.250;-1.118;2023-12-07T06:25:46;5.80;;;3.35;;
70667;SDS011;58242;51.250;-1.118;2023-12-07T06:28:12;3.30;;;3.10;;
70667;SDS011;58242;51.250;-1.118;2023-12-07T06:30:37;5.97;;;3.17;;
70667;SDS011;58242;51.250;-1.118;2023-12-07T06:33:03;3.90;;;3.50;;
70667;SDS011;58242;51.250;-1.118;2023-12-07T06:35:28;3.20;;;3.00;;
70667;SDS011;58242;51.250;-1.118;2023-12-07T06:37:54;3.80;;;3.17;;
70667;SDS011;58242;51.250;-1.118;2023-12-07T06:40:19;5.68;;;3.75;;
70667;SDS011;58242;51.250;-1.118;2023-12-07T06:42:45;4.15;;;3.00;;
70667;SDS011;58242;51.250;-1.118;2023-12-07T06:45:10;5.72;;;3.35;;
70667;SDS011;58242;51.250;-1.118;2023-12-07T06:47:39;3.20;;;2.73;;
70667;SDS011;58242;51.250;-1.118;2023-12-07T06:50:08;3.05;;;2.83;;
70667;SDS011;58242;51.250;-1.118;2023-12-07T06:52:35;3.10;;;2.90;;
70667;SDS011;58242;51.250;-1.118;2023-12-07T06:55:03;3.00;;;2.40;;
70667;SDS011;58242;51.250;-1.118;2023-12-07T06:57:29;2.92;;;2.72;;
70667;SDS011;58242;51.250;-1.118;2023-12-07T06:59:54;3.80;;;2.47;;
70667;SDS011;58242;51.250;-1.118;2023-12-07T07:02:19;2.88;;;2.55;;
70667;SDS011;58242;51.250;-1.118;2023-12-07T07:04:45;5.70;;;2.88;;
70667;SDS011;58242;51.250;-1.118;2023-12-07T07:07:13;2.78;;;2.58;;
70667;SDS011;58242;51.250;-1.118;2023-12-07T07:09:39;2.40;;;2.30;;
70667;SDS011;58242;51.250;-1.118;2023-12-07T07:12:04;2.72;;;2.53;;
70667;SDS011;58242;51.250;-1.118;2023-12-07T07:14:30;3.20;;;2.78;;
70667;SDS011;58242;51.250;-1.118;2023-12-07T07:16:55;2.40;;;2.30;;
70667;SDS011;58242;51.250;-1.118;2023-12-07T07:19:20;2.83;;;2.55;;
70667;SDS011;58242;51.250;-1.118;2023-12-07T07:21:46;3.10;;;2.85;;
70667;SDS011;58242;51.250;-1.118;2023-12-07T07:24:11;2.65;;;2.55;;
70667;SDS011;58242;51.250;-1.118;2023-12-07T07:26:37;2.13;;;2.00;;
70667;SDS011;58242;51.250;-1.118;2023-12-07T07:29:03;3.05;;;2.85;;
70667;SDS011;58242;51.250;-1.118;2023-12-07T07:31:29;2.75;;;2.55;;
70667;SDS011;58242;51.250;-1.118;2023-12-07T07:33:55;2.67;;;2.47;;
70667;SDS011;58242;51.250;-1.118;2023-12-07T07:36:20;3.58;;;2.60;;
70667;SDS011;58242;51.250;-1.118;2023-12-07T07:38:45;2.70;;;2.58;;
70667;SDS011;58242;51.250;-1.118;2023-12-07T07:41:11;3.20;;;3.00;;
70667;SDS011;58242;51.250;-1.118;2023-12-07T07:43:36;4.03;;;3.20;;
70667;SDS011;58242;51.250;-1.118;2023-12-07T07:46:05;2.80;;;2.60;;
70667;SDS011;58242;51.250;-1.118;2023-12-07T07:48:31;4.55;;;3.10;;
70667;SDS011;58242;51.250;-1.118;2023-12-07T07:50:56;2.92;;;2.65;;
70667;SDS011;58242;51.250;-1.118;2023-12-07T07:53:23;3.28;;;2.70;;
70667;SDS011;58242;51.250;-1.118;2023-12-07T07:55:48;3.13;;;2.92;;
70667;SDS011;58242;51.250;-1.118;2023-12-07T07:58:13;2.92;;;2.60;;
70667;SDS011;58242;51.250;-1.118;2023-12-07T08:00:39;5.07;;;3.72;;
70667;SDS011;58242;51.250;-1.118;2023-12-07T08:03:04;3.97;;;3.08;;
70667;SDS011;58242;51.250;-1.118;2023-12-07T08:05:30;4.03;;;3.40;;
70667;SDS011;58242;51.250;-1.118;2023-12-07T08:07:55;3.88;;;3.22;;
70667;SDS011;58242;51.250;-1.118;2023-12-07T08:10:21;3.53;;;3.22;;
70667;SDS011;58242;51.250;-1.118;2023-12-07T08:12:46;3.83;;;3.53;;
70667;SDS011;58242;51.250;-1.118;2023-12-07T08:15:11;4.85;;;3.72;;
70667;SDS011;58242;51.250;-1.118;2023-12-07T08:17:40;5.63;;;3.63;;
70667;SDS011;58242;51.250;-1.118;2023-12-07T08:20:07;5.13;;;3.40;;
70667;SDS011;58242;51.250;-1.118;2023-12-07T08:25:02;8.52;;;4.55;;
70667;SDS011;58242;51.250;-1.118;2023-12-07T08:27:27;8.00;;;4.07;;
70667;SDS011;58242;51.250;-1.118;2023-12-07T08:29:53;5.25;;;3.85;;
70667;SDS011;58242;51.250;-1.118;2023-12-07T08:32:18;6.03;;;4.05;;
70667;SDS011;58242;51.250;-1.118;2023-12-07T08:34:44;9.43;;;4.10;;
70667;SDS011;58242;51.250;-1.118;2023-12-07T08:37:10;4.07;;;3.40;;
70667;SDS011;58242;51.250;-1.118;2023-12-07T08:39:35;6.65;;;3.58;;
70667;SDS011;58242;51.250;-1.118;2023-12-07T08:42:00;5.13;;;3.15;;
70667;SDS011;58242;51.250;-1.118;2023-12-07T08:44:26;7.32;;;3.70;;
70667;SDS011;58242;51.250;-1.118;2023-12-07T08:46:51;6.93;;;3.58;;
70667;SDS011;58242;51.250;-1.118;2023-12-07T08:49:17;8.82;;;3.88;;
70667;SDS011;58242;51.250;-1.118;2023-12-07T08:51:42;5.63;;;3.10;;
70667;SDS011;58242;51.250;-1.118;2023-12-07T08:54:08;4.30;;;3.17;;
70667;SDS011;58242;51.250;-1.118;2023-12-07T08:56:34;3.47;;;2.40;;
70667;SDS011;58242;51.250;-1.118;2023-12-07T08:58:59;3.95;;;2.80;;
70667;SDS011;58242;51.250;-1.118;2023-12-07T09:01:25;5.68;;;2.67;;
70667;SDS011;58242;51.250;-1.118;2023-12-07T09:03:51;5.90;;;3.15;;
70667;SDS011;58242;51.250;-1.118;2023-12-07T09:06:16;4.90;;;2.50;;
70667;SDS011;58242;51.250;-1.118;2023-12-07T09:08:42;3.92;;;3.42;;
70667;SDS011;58242;51.250;-1.118;2023-12-07T09:11:08;5.97;;;3.00;;
70667;SDS011;58242;51.250;-1.118;2023-12-07T09:13:33;5.82;;;3.22;;
70667;SDS011;58242;51.250;-1.118;2023-12-07T09:15:59;3.63;;;2.33;;
70667;SDS011;58242;51.250;-1.118;2023-12-07T09:18:24;5.00;;;2.40;;
70667;SDS011;58242;51.250;-1.118;2023-12-07T09:20:49;5.43;;;2.50;;
70667;SDS011;58242;51.250;-1.118;2023-12-07T09:23:15;8.63;;;3.67;;
70667;SDS011;58242;51.250;-1.118;2023-12-07T09:25:40;9.93;;;3.28;;
70667;SDS011;58242;51.250;-1.118;2023-12-07T09:28:07;9.18;;;3.08;;
70667;SDS011;58242;51.250;-1.118;2023-12-07T09:30:33;3.10;;;2.80;;
70667;SDS011;58242;51.250;-1.118;2023-12-07T09:32:58;3.25;;;2.45;;
70667;SDS011;58242;51.250;-1.118;2023-12-07T09:35:24;2.25;;;2.05;;
70667;SDS011;58242;51.250;-1.118;2023-12-07T09:37:50;5.63;;;2.60;;
70667;SDS011;58242;51.250;-1.118;2023-12-07T09:40:19;8.68;;;3.25;;
70667;SDS011;58242;51.250;-1.118;2023-12-07T09:42:46;8.45;;;3.90;;
70667;SDS011;58242;51.250;-1.118;2023-12-07T09:45:12;2.90;;;2.70;;
70667;SDS011;58242;51.250;-1.118;2023-12-07T09:47:39;8.98;;;3.50;;
70667;SDS011;58242;51.250;-1.118;2023-12-07T09:50:05;5.80;;;2.88;;
70667;SDS011;58242;51.250;-1.118;2023-12-07T09:52:33;6.13;;;3.37;;
70667;SDS011;58242;51.250;-1.118;2023-12-07T09:54:59;4.88;;;3.42;;
70667;SDS011;58242;51.250;-1.118;2023-12-07T09:57:26;7.75;;;3.72;;
70667;SDS011;58242;51.250;-1.118;2023-12-07T09:59:52;4.20;;;3.00;;
70667;SDS011;58242;51.250;-1.118;2023-12-07T10:02:17;8.02;;;3.38;;
70667;SDS011;58242;51.250;-1.118;2023-12-07T10:04:42;5.20;;;3.55;;
70667;SDS011;58242;51.250;-1.118;2023-12-07T10:07:08;6.85;;;3.00;;
70667;SDS011;58242;51.250;-1.118;2023-12-07T10:09:38;5.57;;;2.97;;
70667;SDS011;58242;51.250;-1.118;2023-12-07T10:12:04;4.35;;;3.10;;
70667;SDS011;58242;51.250;-1.118;2023-12-07T10:14:30;3.63;;;2.47;;
70667;SDS011;58242;51.250;-1.118;2023-12-07T10:16:56;3.00;;;2.60;;
70667;SDS011;58242;51.250;-1.118;2023-12-07T10:19:21;5.07;;;2.42;;
70667;SDS011;58242;51.250;-1.118;2023-12-07T10:21:48;5.07;;;2.85;;
70667;SDS011;58242;51.250;-1.118;2023-12-07T10:24:18;8.88;;;2.58;;
70667;SDS011;58242;51.250;-1.118;2023-12-07T10:26:45;4.55;;;2.38;;
70667;SDS011;58242;51.250;-1.118;2023-12-07T10:29:11;3.05;;;2.38;;
70667;SDS011;58242;51.250;-1.118;2023-12-07T10:31:37;4.38;;;2.95;;
70667;SDS011;58242;51.250;-1.118;2023-12-07T10:34:03;4.68;;;2.92;;
70667;SDS011;58242;51.250;-1.118;2023-12-07T10:36:29;4.90;;;2.50;;
70667;SDS011;58242;51.250;-1.118;2023-12-07T10:38:55;3.60;;;2.63;;
70667;SDS011;58242;51.250;-1.118;2023-12-07T10:41:21;4.88;;;3.17;;
70667;SDS011;58242;51.250;-1.118;2023-12-07T10:43:51;4.55;;;3.28;;
70667;SDS011;58242;51.250;-1.118;2023-12-07T10:46:21;4.53;;;2.78;;
70667;SDS011;58242;51.250;-1.118;2023-12-07T10:48:47;2.42;;;2.22;;
70667;SDS011;58242;51.250;-1.118;2023-12-07T10:51:22;4.97;;;2.58;;
70667;SDS011;58242;51.250;-1.118;2023-12-07T10:53:55;4.72;;;2.67;;
70667;SDS011;58242;51.250;-1.118;2023-12-07T10:56:28;6.20;;;3.63;;
70667;SDS011;58242;51.250;-1.118;2023-12-07T10:58:57;6.43;;;2.65;;
70667;SDS011;58242;51.250;-1.118;2023-12-07T11:01:23;4.40;;;2.83;;
70667;SDS011;58242;51.250;-1.118;2023-12-07T11:03:51;4.07;;;2.85;;
70667;SDS011;58242;51.250;-1.118;2023-12-07T11:06:18;5.85;;;2.65;;
70667;SDS011;58242;51.250;-1.118;2023-12-07T11:08:50;3.10;;;2.72;;
70667;SDS011;58242;51.250;-1.118;2023-12-07T11:12:02;4.38;;;3.00;;
70667;SDS011;58242;51.250;-1.118;2023-12-07T11:14:09;6.80;;;3.63;;
70667;SDS011;58242;51.250;-1.118;2023-12-07T11:16:42;4.13;;;3.63;;
70667;SDS011;58242;51.250;-1.118;2023-12-07T11:22:02;6.57;;;3.47;;
70667;SDS011;58242;51.250;-1.118;2023-12-07T11:24:29;5.32;;;3.10;;
70667;SDS011;58242;51.250;-1.118;2023-12-07T11:26:55;4.47;;;2.70;;
70667;SDS011;58242;51.250;-1.118;2023-12-07T11:29:24;7.13;;;3.13;;
70667;SDS011;58242;51.250;-1.118;2023-12-07T11:31:51;6.80;;;3.65;;
70667;SDS011;58242;51.250;-1.118;2023-12-07T11:34:35;7.80;;;3.28;;
70667;SDS011;58242;51.250;-1.118;2023-12-07T11:37:01;5.15;;;3.45;;
70667;SDS011;58242;51.250;-1.118;2023-12-07T11:39:28;5.75;;;3.55;;
70667;SDS011;58242;51.250;-1.118;2023-12-07T11:41:54;6.78;;;3.70;;
70667;SDS011;58242;51.250;-1.118;2023-12-07T11:44:56;3.50;;;3.20;;
70667;SDS011;58242;51.250;-1.118;2023-12-07T11:47:15;3.47;;;3.00;;
70667;SDS011;58242;51.250;-1.118;2023-12-07T11:49:42;3.47;;;3.17;;
70667;SDS011;58242;51.250;-1.118;2023-12-07T11:52:12;3.45;;;2.67;;
70667;SDS011;58242;51.250;-1.118;2023-12-07T11:54:48;3.67;;;2.85;;
70667;SDS011;58242;51.250;-1.118;2023-12-07T11:57:15;4.85;;;3.10;;
70667;SDS011;58242;51.250;-1.118;2023-12-07T11:59:43;6.05;;;3.20;;
70667;SDS011;58242;51.250;-1.118;2023-12-07T12:02:12;5.80;;;3.28;;
70667;SDS011;58242;51.250;-1.118;2023-12-07T12:04:38;7.40;;;3.35;;
70667;SDS011;58242;51.250;-1.118;2023-12-07T12:07:04;3.58;;;2.90;;
70667;SDS011;58242;51.250;-1.118;2023-12-07T12:09:29;4.32;;;4.03;;
70667;SDS011;58242;51.250;-1.118;2023-12-07T12:11:54;4.28;;;3.90;;
70667;SDS011;58242;51.250;-1.118;2023-12-07T12:14:25;5.57;;;3.90;;
70667;SDS011;58242;51.250;-1.118;2023-12-07T12:16:51;4.25;;;3.25;;
70667;SDS011;58242;51.250;-1.118;2023-12-07T12:19:16;3.22;;;2.78;;
70667;SDS011;58242;51.250;-1.118;2023-12-07T12:21:42;5.18;;;3.30;;
70667;SDS011;58242;51.250;-1.118;2023-12-07T12:24:08;6.30;;;3.85;;
70667;SDS011;58242;51.250;-1.118;2023-12-07T12:26:36;5.53;;;3.20;;
70667;SDS011;58242;51.250;-1.118;2023-12-07T12:29:03;4.75;;;4.00;;
70667;SDS011;58242;51.250;-1.118;2023-12-07T12:31:29;5.80;;;3.22;;
70667;SDS011;58242;51.250;-1.118;2023-12-07T12:33:55;6.47;;;2.83;;
70667;SDS011;58242;51.250;-1.118;2023-12-07T12:36:21;4.53;;;2.75;;
70667;SDS011;58242;51.250;-1.118;2023-12-07T12:38:48;3.55;;;3.22;;
70667;SDS011;58242;51.250;-1.118;2023-12-07T12:41:18;4.80;;;2.92;;
70667;SDS011;58242;51.250;-1.118;2023-12-07T12:43:44;6.05;;;2.97;;
70667;SDS011;58242;51.250;-1.118;2023-12-07T12:46:10;9.38;;;3.35;;
70667;SDS011;58242;51.250;-1.118;2023-12-07T12:48:36;2.95;;;2.47;;
70667;SDS011;58242;51.250;-1.118;2023-12-07T12:51:09;5.63;;;2.92;;
70667;SDS011;58242;51.250;-1.118;2023-12-07T12:53:41;6.63;;;3.72;;
70667;SDS011;58242;51.250;-1.118;2023-12-07T12:56:09;3.88;;;2.80;;
70667;SDS011;58242;51.250;-1.118;2023-12-07T12:58:35;5.75;;;3.60;;
70667;SDS011;58242;51.250;-1.118;2023-12-07T13:01:01;3.10;;;2.80;;
70667;SDS011;58242;51.250;-1.118;2023-12-07T13:03:28;4.30;;;3.70;;
70667;SDS011;58242;51.250;-1.118;2023-12-07T13:05:54;3.55;;;3.25;;
70667;SDS011;58242;51.250;-1.118;2023-12-07T13:08:19;3.38;;;2.85;;
70667;SDS011;58242;51.250;-1.118;2023-12-07T13:10:45;4.22;;;2.70;;
70667;SDS011;58242;51.250;-1.118;2023-12-07T13:13:10;4.50;;;3.10;;
70667;SDS011;58242;51.250;-1.118;2023-12-07T13:15:36;8.63;;;3.42;;
70667;SDS011;58242;51.250;-1.118;2023-12-07T13:18:02;4.07;;;3.10;;
70667;SDS011;58242;51.250;-1.118;2023-12-07T13:20:29;3.30;;;2.88;;
70667;SDS011;58242;51.250;-1.118;2023-12-07T13:22:55;4.00;;;3.13;;
70667;SDS011;58242;51.250;-1.118;2023-12-07T13:25:20;3.53;;;3.28;;
70667;SDS011;58242;51.250;-1.118;2023-12-07T13:27:46;4.78;;;3.10;;
70667;SDS011;58242;51.250;-1.118;2023-12-07T13:30:11;3.33;;;3.03;;
70667;SDS011;58242;51.250;-1.118;2023-12-07T13:32:37;3.63;;;2.88;;
70667;SDS011;58242;51.250;-1.118;2023-12-07T13:35:03;5.13;;;3.33;;
70667;SDS011;58242;51.250;-1.118;2023-12-07T13:37:29;3.13;;;2.80;;
70667;SDS011;58242;51.250;-1.118;2023-12-07T13:39:55;3.40;;;3.10;;
70667;SDS011;58242;51.250;-1.118;2023-12-07T13:42:25;3.00;;;2.80;;
70667;SDS011;58242;51.250;-1.118;2023-12-07T13:44:51;3.95;;;3.20;;
70667;SDS011;58242;51.250;-1.118;2023-12-07T13:47:18;3.28;;;3.08;;
70667;SDS011;58242;51.250;-1.118;2023-12-07T13:49:45;4.70;;;3.50;;
70667;SDS011;58242;51.250;-1.118;2023-12-07T13:52:10;3.40;;;3.10;;
70667;SDS011;58242;51.250;-1.118;2023-12-07T13:54:36;3.25;;;3.00;;
70667;SDS011;58242;51.250;-1.118;2023-12-07T13:57:01;4.35;;;3.67;;
70667;SDS011;58242;51.250;-1.118;2023-12-07T13:59:28;5.20;;;3.15;;
70667;SDS011;58242;51.250;-1.118;2023-12-07T14:01:54;3.22;;;3.03;;
70667;SDS011;58242;51.250;-1.118;2023-12-07T14:04:20;4.75;;;3.05;;
70667;SDS011;58242;51.250;-1.118;2023-12-07T14:06:45;3.40;;;3.20;;
70667;SDS011;58242;51.250;-1.118;2023-12-07T14:09:11;2.60;;;2.42;;
70667;SDS011;58242;51.250;-1.118;2023-12-07T14:11:36;2.70;;;2.60;;
70667;SDS011;58242;51.250;-1.118;2023-12-07T14:14:01;2.70;;;2.60;;
70667;SDS011;58242;51.250;-1.118;2023-12-07T14:16:28;2.70;;;2.60;;
70667;SDS011;58242;51.250;-1.118;2023-12-07T14:18:54;2.92;;;2.72;;
70667;SDS011;58242;51.250;-1.118;2023-12-07T14:21:19;3.55;;;3.35;;
70667;SDS011;58242;51.250;-1.118;2023-12-07T14:23:45;3.35;;;3.15;;
70667;SDS011;58242;51.250;-1.118;2023-12-07T14:26:11;3.80;;;3.60;;
70667;SDS011;58242;51.250;-1.118;2023-12-07T14:28:36;3.45;;;3.30;;
70667;SDS011;58242;51.250;-1.118;2023-12-07T14:31:02;3.70;;;3.60;;
70667;SDS011;58242;51.250;-1.118;2023-12-07T14:33:29;4.15;;;3.33;;